sensor_id;sensor_type;location;lat;lon;timestamp;P1;durP1;ratioP1;P2;durP2;ratioP2
60851;SDS011;48553;50.766;2.900;2023-04-07T00:00:06;12.52;;;4.45;;
60851;SDS011;48553;50.766;2.900;2023-04-07T00:03:07;9.05;;;4.70;;
60851;SDS011;48553;50.766;2.900;2023-04-07T00:06:07;10.43;;;5.13;;
60851;SDS011;48553;50.766;2.900;2023-04-07T00:09:08;9.95;;;4.90;;
60851;SDS011;48553;50.766;2.900;2023-04-07T00:12:10;11.02;;;5.00;;
60851;SDS011;48553;50.766;2.900;2023-04-07T00:15:10;14.45;;;4.97;;
60851;SDS011;48553;50.766;2.900;2023-04-07T00:18:11;10.95;;;4.93;;
60851;SDS011;48553;50.766;2.900;2023-04-07T00:21:11;9.68;;;4.50;;
60851;SDS011;48553;50.766;2.900;2023-04-07T00:24:11;9.10;;;5.10;;
60851;SDS011;48553;50.766;2.900;2023-04-07T00:27:12;9.50;;;4.78;;
60851;SDS011;48553;50.766;2.900;2023-04-07T00:30:12;8.13;;;4.68;;
60851;SDS011;48553;50.766;2.900;2023-04-07T00:33:14;9.77;;;4.65;;
60851;SDS011;48553;50.766;2.900;2023-04-07T00:36:15;12.20;;;5.00;;
60851;SDS011;48553;50.766;2.900;2023-04-07T00:39:15;10.77;;;4.32;;
60851;SDS011;48553;50.766;2.900;2023-04-07T00:42:16;7.95;;;4.22;;
60851;SDS011;48553;50.766;2.900;2023-04-07T00:45:17;10.38;;;4.65;;
60851;SDS011;48553;50.766;2.900;2023-04-07T00:48:18;10.65;;;5.10;;
60851;SDS011;48553;50.766;2.900;2023-04-07T00:51:19;9.73;;;4.68;;
60851;SDS011;48553;50.766;2.900;2023-04-07T00:54:24;9.18;;;5.07;;
60851;SDS011;48553;50.766;2.900;2023-04-07T00:57:25;10.80;;;4.70;;
60851;SDS011;48553;50.766;2.900;2023-04-07T01:00:25;8.45;;;4.80;;
60851;SDS011;48553;50.766;2.900;2023-04-07T01:03:32;9.65;;;5.13;;
60851;SDS011;48553;50.766;2.900;2023-04-07T01:06:37;10.80;;;4.75;;
60851;SDS011;48553;50.766;2.900;2023-04-07T01:09:47;10.05;;;4.80;;
60851;SDS011;48553;50.766;2.900;2023-04-07T01:13:05;10.48;;;4.55;;
60851;SDS011;48553;50.766;2.900;2023-04-07T01:16:34;10.93;;;4.80;;
60851;SDS011;48553;50.766;2.900;2023-04-07T01:23:06;9.80;;;4.45;;
60851;SDS011;48553;50.766;2.900;2023-04-07T01:29:37;8.90;;;4.78;;
60851;SDS011;48553;50.766;2.900;2023-04-07T01:32:50;10.35;;;5.30;;
60851;SDS011;48553;50.766;2.900;2023-04-07T01:35:52;9.85;;;4.93;;
60851;SDS011;48553;50.766;2.900;2023-04-07T01:38:54;12.30;;;5.28;;
60851;SDS011;48553;50.766;2.900;2023-04-07T01:41:55;13.07;;;5.47;;
60851;SDS011;48553;50.766;2.900;2023-04-07T01:44:57;12.43;;;5.28;;
60851;SDS011;48553;50.766;2.900;2023-04-07T01:48:00;10.73;;;5.50;;
60851;SDS011;48553;50.766;2.900;2023-04-07T01:51:01;9.57;;;4.80;;
60851;SDS011;48553;50.766;2.900;2023-04-07T01:54:03;10.65;;;5.38;;
60851;SDS011;48553;50.766;2.900;2023-04-07T01:57:04;10.27;;;5.13;;
60851;SDS011;48553;50.766;2.900;2023-04-07T02:00:05;8.88;;;5.20;;
60851;SDS011;48553;50.766;2.900;2023-04-07T02:03:08;9.38;;;4.90;;
60851;SDS011;48553;50.766;2.900;2023-04-07T02:06:21;9.13;;;4.68;;
60851;SDS011;48553;50.766;2.900;2023-04-07T02:09:25;9.02;;;4.70;;
60851;SDS011;48553;50.766;2.900;2023-04-07T02:12:29;10.30;;;4.60;;
60851;SDS011;48553;50.766;2.900;2023-04-07T02:15:32;7.65;;;4.40;;
60851;SDS011;48553;50.766;2.900;2023-04-07T02:18:33;8.73;;;4.60;;
60851;SDS011;48553;50.766;2.900;2023-04-07T02:21:36;8.98;;;4.18;;
60851;SDS011;48553;50.766;2.900;2023-04-07T02:24:40;9.65;;;4.18;;
60851;SDS011;48553;50.766;2.900;2023-04-07T02:27:41;10.15;;;4.70;;
60851;SDS011;48553;50.766;2.900;2023-04-07T02:30:42;8.40;;;4.32;;
60851;SDS011;48553;50.766;2.900;2023-04-07T02:33:42;12.05;;;4.70;;
60851;SDS011;48553;50.766;2.900;2023-04-07T02:36:43;10.40;;;4.75;;
60851;SDS011;48553;50.766;2.900;2023-04-07T02:39:43;11.77;;;5.32;;
60851;SDS011;48553;50.766;2.900;2023-04-07T02:42:43;10.60;;;5.43;;
60851;SDS011;48553;50.766;2.900;2023-04-07T02:45:44;14.82;;;5.57;;
60851;SDS011;48553;50.766;2.900;2023-04-07T02:48:45;17.30;;;6.03;;
60851;SDS011;48553;50.766;2.900;2023-04-07T02:51:45;15.60;;;6.88;;
60851;SDS011;48553;50.766;2.900;2023-04-07T02:54:46;15.73;;;6.75;;
60851;SDS011;48553;50.766;2.900;2023-04-07T02:57:46;14.57;;;7.07;;
60851;SDS011;48553;50.766;2.900;2023-04-07T03:00:47;15.65;;;7.15;;
60851;SDS011;48553;50.766;2.900;2023-04-07T03:03:48;14.52;;;7.47;;
60851;SDS011;48553;50.766;2.900;2023-04-07T03:06:48;14.07;;;6.82;;
60851;SDS011;48553;50.766;2.900;2023-04-07T03:09:49;14.45;;;6.88;;
60851;SDS011;48553;50.766;2.900;2023-04-07T03:12:49;20.00;;;7.00;;
60851;SDS011;48553;50.766;2.900;2023-04-07T03:15:50;17.98;;;7.57;;
60851;SDS011;48553;50.766;2.900;2023-04-07T03:18:50;14.10;;;6.57;;
60851;SDS011;48553;50.766;2.900;2023-04-07T03:21:50;13.40;;;6.63;;
60851;SDS011;48553;50.766;2.900;2023-04-07T03:24:51;14.25;;;6.22;;
60851;SDS011;48553;50.766;2.900;2023-04-07T03:27:51;20.15;;;6.70;;
60851;SDS011;48553;50.766;2.900;2023-04-07T03:30:52;15.48;;;6.28;;
60851;SDS011;48553;50.766;2.900;2023-04-07T03:33:52;12.02;;;6.22;;
60851;SDS011;48553;50.766;2.900;2023-04-07T03:36:52;13.23;;;5.80;;
60851;SDS011;48553;50.766;2.900;2023-04-07T03:39:53;14.43;;;5.90;;
60851;SDS011;48553;50.766;2.900;2023-04-07T03:42:53;15.85;;;5.68;;
60851;SDS011;48553;50.766;2.900;2023-04-07T03:45:54;11.90;;;5.35;;
60851;SDS011;48553;50.766;2.900;2023-04-07T03:48:54;14.20;;;5.53;;
60851;SDS011;48553;50.766;2.900;2023-04-07T03:51:55;12.02;;;5.68;;
60851;SDS011;48553;50.766;2.900;2023-04-07T03:54:55;11.73;;;4.80;;
60851;SDS011;48553;50.766;2.900;2023-04-07T03:57:56;14.38;;;4.88;;
60851;SDS011;48553;50.766;2.900;2023-04-07T04:00:57;10.75;;;4.88;;
60851;SDS011;48553;50.766;2.900;2023-04-07T04:03:57;11.75;;;4.45;;
60851;SDS011;48553;50.766;2.900;2023-04-07T04:06:58;10.80;;;4.43;;
60851;SDS011;48553;50.766;2.900;2023-04-07T04:09:58;10.18;;;3.92;;
60851;SDS011;48553;50.766;2.900;2023-04-07T04:12:58;8.05;;;3.95;;
60851;SDS011;48553;50.766;2.900;2023-04-07T04:15:59;8.10;;;3.70;;
60851;SDS011;48553;50.766;2.900;2023-04-07T04:19:00;10.68;;;3.92;;
60851;SDS011;48553;50.766;2.900;2023-04-07T04:22:00;10.88;;;3.75;;
60851;SDS011;48553;50.766;2.900;2023-04-07T04:25:01;10.30;;;3.75;;
60851;SDS011;48553;50.766;2.900;2023-04-07T04:28:01;9.30;;;3.55;;
60851;SDS011;48553;50.766;2.900;2023-04-07T04:31:02;7.95;;;3.47;;
60851;SDS011;48553;50.766;2.900;2023-04-07T04:34:02;7.10;;;3.45;;
60851;SDS011;48553;50.766;2.900;2023-04-07T04:37:04;7.25;;;3.22;;
60851;SDS011;48553;50.766;2.900;2023-04-07T04:40:05;7.60;;;3.38;;
60851;SDS011;48553;50.766;2.900;2023-04-07T04:43:07;7.35;;;3.30;;
60851;SDS011;48553;50.766;2.900;2023-04-07T04:46:08;7.53;;;3.20;;
60851;SDS011;48553;50.766;2.900;2023-04-07T04:49:09;12.55;;;3.65;;
60851;SDS011;48553;50.766;2.900;2023-04-07T04:52:09;7.07;;;3.40;;
60851;SDS011;48553;50.766;2.900;2023-04-07T04:55:09;7.78;;;3.28;;
60851;SDS011;48553;50.766;2.900;2023-04-07T04:58:10;8.63;;;3.40;;
60851;SDS011;48553;50.766;2.900;2023-04-07T05:01:11;9.02;;;3.42;;
60851;SDS011;48553;50.766;2.900;2023-04-07T05:04:12;7.95;;;3.50;;
60851;SDS011;48553;50.766;2.900;2023-04-07T05:07:12;7.88;;;3.35;;
60851;SDS011;48553;50.766;2.900;2023-04-07T05:10:12;9.40;;;3.15;;
60851;SDS011;48553;50.766;2.900;2023-04-07T05:13:13;6.90;;;2.92;;
60851;SDS011;48553;50.766;2.900;2023-04-07T05:16:14;7.50;;;3.20;;
60851;SDS011;48553;50.766;2.900;2023-04-07T05:19:14;9.07;;;3.30;;
60851;SDS011;48553;50.766;2.900;2023-04-07T05:22:14;10.18;;;3.13;;
60851;SDS011;48553;50.766;2.900;2023-04-07T05:25:15;8.18;;;2.80;;
60851;SDS011;48553;50.766;2.900;2023-04-07T05:28:16;6.43;;;3.15;;
60851;SDS011;48553;50.766;2.900;2023-04-07T05:31:16;6.22;;;3.03;;
60851;SDS011;48553;50.766;2.900;2023-04-07T05:34:17;8.65;;;3.08;;
60851;SDS011;48553;50.766;2.900;2023-04-07T05:37:17;7.45;;;2.90;;
60851;SDS011;48553;50.766;2.900;2023-04-07T05:40:18;8.50;;;3.00;;
60851;SDS011;48553;50.766;2.900;2023-04-07T05:43:18;6.63;;;2.92;;
60851;SDS011;48553;50.766;2.900;2023-04-07T05:46:18;10.02;;;2.95;;
60851;SDS011;48553;50.766;2.900;2023-04-07T05:49:19;10.15;;;3.00;;
60851;SDS011;48553;50.766;2.900;2023-04-07T05:52:19;7.35;;;2.80;;
60851;SDS011;48553;50.766;2.900;2023-04-07T05:55:20;9.30;;;3.10;;
60851;SDS011;48553;50.766;2.900;2023-04-07T05:58:20;5.55;;;2.75;;
60851;SDS011;48553;50.766;2.900;2023-04-07T06:01:21;10.95;;;3.13;;
60851;SDS011;48553;50.766;2.900;2023-04-07T06:04:21;6.45;;;2.95;;
60851;SDS011;48553;50.766;2.900;2023-04-07T06:07:21;9.27;;;3.13;;
60851;SDS011;48553;50.766;2.900;2023-04-07T06:10:22;8.10;;;2.92;;
60851;SDS011;48553;50.766;2.900;2023-04-07T06:13:22;12.20;;;2.75;;
60851;SDS011;48553;50.766;2.900;2023-04-07T06:16:23;9.18;;;3.10;;
60851;SDS011;48553;50.766;2.900;2023-04-07T06:19:23;10.65;;;2.90;;
60851;SDS011;48553;50.766;2.900;2023-04-07T06:22:24;6.38;;;3.22;;
60851;SDS011;48553;50.766;2.900;2023-04-07T06:25:24;10.15;;;3.20;;
60851;SDS011;48553;50.766;2.900;2023-04-07T06:28:25;10.65;;;3.13;;
60851;SDS011;48553;50.766;2.900;2023-04-07T06:31:25;7.75;;;3.03;;
60851;SDS011;48553;50.766;2.900;2023-04-07T06:34:26;7.57;;;3.13;;
60851;SDS011;48553;50.766;2.900;2023-04-07T06:37:26;6.05;;;3.00;;
60851;SDS011;48553;50.766;2.900;2023-04-07T06:40:27;7.88;;;3.30;;
60851;SDS011;48553;50.766;2.900;2023-04-07T06:43:27;11.82;;;3.13;;
60851;SDS011;48553;50.766;2.900;2023-04-07T06:46:27;9.15;;;3.10;;
60851;SDS011;48553;50.766;2.900;2023-04-07T06:49:28;7.28;;;2.92;;
60851;SDS011;48553;50.766;2.900;2023-04-07T06:52:28;8.02;;;3.13;;
60851;SDS011;48553;50.766;2.900;2023-04-07T06:55:29;7.05;;;2.95;;
60851;SDS011;48553;50.766;2.900;2023-04-07T06:58:30;9.07;;;3.00;;
60851;SDS011;48553;50.766;2.900;2023-04-07T07:01:30;11.40;;;3.38;;
60851;SDS011;48553;50.766;2.900;2023-04-07T07:04:32;8.75;;;3.35;;
60851;SDS011;48553;50.766;2.900;2023-04-07T07:07:33;7.93;;;3.35;;
60851;SDS011;48553;50.766;2.900;2023-04-07T07:10:34;9.65;;;3.40;;
60851;SDS011;48553;50.766;2.900;2023-04-07T07:13:34;10.18;;;3.28;;
60851;SDS011;48553;50.766;2.900;2023-04-07T07:16:35;8.95;;;3.83;;
60851;SDS011;48553;50.766;2.900;2023-04-07T07:19:36;9.48;;;3.58;;
60851;SDS011;48553;50.766;2.900;2023-04-07T07:22:36;7.75;;;3.50;;
60851;SDS011;48553;50.766;2.900;2023-04-07T07:25:37;11.60;;;3.80;;
60851;SDS011;48553;50.766;2.900;2023-04-07T07:28:37;8.85;;;3.83;;
60851;SDS011;48553;50.766;2.900;2023-04-07T07:31:38;7.45;;;3.70;;
60851;SDS011;48553;50.766;2.900;2023-04-07T07:34:38;9.18;;;3.55;;
60851;SDS011;48553;50.766;2.900;2023-04-07T07:37:39;9.32;;;3.58;;
60851;SDS011;48553;50.766;2.900;2023-04-07T07:40:39;6.53;;;3.85;;
60851;SDS011;48553;50.766;2.900;2023-04-07T07:43:40;8.73;;;3.80;;
60851;SDS011;48553;50.766;2.900;2023-04-07T07:46:40;8.57;;;3.63;;
60851;SDS011;48553;50.766;2.900;2023-04-07T07:49:41;6.80;;;3.53;;
60851;SDS011;48553;50.766;2.900;2023-04-07T07:52:41;10.50;;;3.70;;
60851;SDS011;48553;50.766;2.900;2023-04-07T07:55:42;8.45;;;4.00;;
60851;SDS011;48553;50.766;2.900;2023-04-07T07:58:42;11.02;;;3.53;;
60851;SDS011;48553;50.766;2.900;2023-04-07T08:01:43;7.60;;;3.83;;
60851;SDS011;48553;50.766;2.900;2023-04-07T08:04:43;7.65;;;3.92;;
60851;SDS011;48553;50.766;2.900;2023-04-07T08:07:44;9.60;;;3.72;;
60851;SDS011;48553;50.766;2.900;2023-04-07T08:10:45;7.72;;;4.03;;
60851;SDS011;48553;50.766;2.900;2023-04-07T08:13:46;10.60;;;3.85;;
60851;SDS011;48553;50.766;2.900;2023-04-07T08:16:46;8.02;;;3.88;;
60851;SDS011;48553;50.766;2.900;2023-04-07T08:19:47;8.52;;;4.15;;
60851;SDS011;48553;50.766;2.900;2023-04-07T08:22:47;7.80;;;3.83;;
60851;SDS011;48553;50.766;2.900;2023-04-07T08:25:47;12.73;;;4.13;;
60851;SDS011;48553;50.766;2.900;2023-04-07T08:28:48;8.60;;;4.00;;
60851;SDS011;48553;50.766;2.900;2023-04-07T08:31:52;7.30;;;3.58;;
60851;SDS011;48553;50.766;2.900;2023-04-07T08:34:54;10.38;;;4.03;;
60851;SDS011;48553;50.766;2.900;2023-04-07T08:37:55;7.65;;;3.88;;
60851;SDS011;48553;50.766;2.900;2023-04-07T08:44:26;6.93;;;3.47;;
60851;SDS011;48553;50.766;2.900;2023-04-07T08:47:32;10.40;;;3.67;;
60851;SDS011;48553;50.766;2.900;2023-04-07T08:50:34;7.97;;;3.65;;
60851;SDS011;48553;50.766;2.900;2023-04-07T08:53:42;7.63;;;3.47;;
60851;SDS011;48553;50.766;2.900;2023-04-07T08:56:51;8.23;;;3.47;;
60851;SDS011;48553;50.766;2.900;2023-04-07T08:59:52;9.63;;;3.60;;
60851;SDS011;48553;50.766;2.900;2023-04-07T09:02:53;6.25;;;3.35;;
60851;SDS011;48553;50.766;2.900;2023-04-07T09:05:54;6.90;;;3.13;;
60851;SDS011;48553;50.766;2.900;2023-04-07T09:08:57;6.68;;;3.00;;
60851;SDS011;48553;50.766;2.900;2023-04-07T09:11:58;7.60;;;3.25;;
60851;SDS011;48553;50.766;2.900;2023-04-07T09:14:58;6.57;;;3.13;;
60851;SDS011;48553;50.766;2.900;2023-04-07T09:17:59;5.30;;;3.13;;
60851;SDS011;48553;50.766;2.900;2023-04-07T09:21:01;7.43;;;3.13;;
60851;SDS011;48553;50.766;2.900;2023-04-07T09:24:10;5.97;;;2.72;;
60851;SDS011;48553;50.766;2.900;2023-04-07T09:27:23;7.38;;;2.83;;
60851;SDS011;48553;50.766;2.900;2023-04-07T09:30:24;7.20;;;2.83;;
60851;SDS011;48553;50.766;2.900;2023-04-07T09:33:28;5.50;;;2.35;;
60851;SDS011;48553;50.766;2.900;2023-04-07T09:36:29;4.75;;;2.22;;
60851;SDS011;48553;50.766;2.900;2023-04-07T09:39:47;5.05;;;1.98;;
60851;SDS011;48553;50.766;2.900;2023-04-07T09:42:49;4.10;;;1.67;;
60851;SDS011;48553;50.766;2.900;2023-04-07T09:45:50;5.50;;;1.75;;
60851;SDS011;48553;50.766;2.900;2023-04-07T09:48:59;4.00;;;1.70;;
60851;SDS011;48553;50.766;2.900;2023-04-07T09:52:04;2.97;;;1.27;;
60851;SDS011;48553;50.766;2.900;2023-04-07T09:55:06;4.97;;;1.52;;
60851;SDS011;48553;50.766;2.900;2023-04-07T09:58:07;5.15;;;1.30;;
60851;SDS011;48553;50.766;2.900;2023-04-07T10:01:11;4.85;;;1.15;;
60851;SDS011;48553;50.766;2.900;2023-04-07T10:04:12;3.33;;;1.20;;
60851;SDS011;48553;50.766;2.900;2023-04-07T10:07:13;2.60;;;1.20;;
60851;SDS011;48553;50.766;2.900;2023-04-07T10:10:14;3.00;;;1.10;;
60851;SDS011;48553;50.766;2.900;2023-04-07T10:13:15;4.72;;;1.65;;
60851;SDS011;48553;50.766;2.900;2023-04-07T10:16:16;2.53;;;1.20;;
60851;SDS011;48553;50.766;2.900;2023-04-07T10:19:16;4.05;;;1.27;;
60851;SDS011;48553;50.766;2.900;2023-04-07T10:22:18;4.32;;;1.58;;
60851;SDS011;48553;50.766;2.900;2023-04-07T10:25:21;3.83;;;1.33;;
60851;SDS011;48553;50.766;2.900;2023-04-07T10:28:24;5.40;;;1.80;;
60851;SDS011;48553;50.766;2.900;2023-04-07T10:31:27;5.53;;;2.05;;
60851;SDS011;48553;50.766;2.900;2023-04-07T10:41:30;4.13;;;1.33;;
60851;SDS011;48553;50.766;2.900;2023-04-07T10:54:17;4.43;;;1.00;;
60851;SDS011;48553;50.766;2.900;2023-04-07T10:57:17;6.82;;;1.17;;
60851;SDS011;48553;50.766;2.900;2023-04-07T11:00:20;4.10;;;1.13;;
60851;SDS011;48553;50.766;2.900;2023-04-07T11:03:21;6.93;;;1.50;;
60851;SDS011;48553;50.766;2.900;2023-04-07T11:06:21;3.05;;;1.35;;
60851;SDS011;48553;50.766;2.900;2023-04-07T11:09:22;6.00;;;1.40;;
60851;SDS011;48553;50.766;2.900;2023-04-07T11:12:23;4.68;;;1.17;;
60851;SDS011;48553;50.766;2.900;2023-04-07T11:15:23;4.93;;;1.63;;
60851;SDS011;48553;50.766;2.900;2023-04-07T11:18:24;2.70;;;1.23;;
60851;SDS011;48553;50.766;2.900;2023-04-07T11:21:25;2.67;;;1.45;;
60851;SDS011;48553;50.766;2.900;2023-04-07T11:24:32;4.28;;;1.27;;
60851;SDS011;48553;50.766;2.900;2023-04-07T11:27:38;4.68;;;1.33;;
60851;SDS011;48553;50.766;2.900;2023-04-07T11:30:43;3.33;;;1.48;;
60851;SDS011;48553;50.766;2.900;2023-04-07T11:33:52;5.28;;;1.33;;
60851;SDS011;48553;50.766;2.900;2023-04-07T11:36:54;6.50;;;1.55;;
60851;SDS011;48553;50.766;2.900;2023-04-07T11:39:58;3.70;;;1.27;;
60851;SDS011;48553;50.766;2.900;2023-04-07T11:42:58;2.42;;;1.15;;
60851;SDS011;48553;50.766;2.900;2023-04-07T11:46:13;3.67;;;1.20;;
60851;SDS011;48553;50.766;2.900;2023-04-07T11:49:15;4.13;;;1.30;;
60851;SDS011;48553;50.766;2.900;2023-04-07T11:52:16;5.65;;;1.30;;
60851;SDS011;48553;50.766;2.900;2023-04-07T11:55:17;2.85;;;0.98;;
60851;SDS011;48553;50.766;2.900;2023-04-07T11:58:18;2.88;;;1.23;;
60851;SDS011;48553;50.766;2.900;2023-04-07T12:01:19;2.47;;;1.40;;
60851;SDS011;48553;50.766;2.900;2023-04-07T12:04:20;5.55;;;1.00;;
60851;SDS011;48553;50.766;2.900;2023-04-07T12:07:21;6.38;;;1.80;;
60851;SDS011;48553;50.766;2.900;2023-04-07T12:10:22;3.05;;;0.88;;
60851;SDS011;48553;50.766;2.900;2023-04-07T12:16:26;4.17;;;1.20;;
60851;SDS011;48553;50.766;2.900;2023-04-07T12:19:27;3.33;;;1.10;;
60851;SDS011;48553;50.766;2.900;2023-04-07T12:22:28;2.83;;;1.00;;
60851;SDS011;48553;50.766;2.900;2023-04-07T12:25:28;3.38;;;0.90;;
60851;SDS011;48553;50.766;2.900;2023-04-07T12:28:29;2.38;;;0.90;;
60851;SDS011;48553;50.766;2.900;2023-04-07T12:31:30;2.72;;;0.80;;
60851;SDS011;48553;50.766;2.900;2023-04-07T12:34:31;2.95;;;1.20;;
60851;SDS011;48553;50.766;2.900;2023-04-07T12:37:32;2.83;;;1.45;;
60851;SDS011;48553;50.766;2.900;2023-04-07T12:40:32;2.75;;;1.27;;
60851;SDS011;48553;50.766;2.900;2023-04-07T12:43:34;4.25;;;1.00;;
60851;SDS011;48553;50.766;2.900;2023-04-07T12:46:34;3.25;;;1.60;;
60851;SDS011;48553;50.766;2.900;2023-04-07T12:49:35;5.15;;;1.00;;
60851;SDS011;48553;50.766;2.900;2023-04-07T12:52:35;2.42;;;0.88;;
60851;SDS011;48553;50.766;2.900;2023-04-07T12:55:36;3.58;;;1.77;;
60851;SDS011;48553;50.766;2.900;2023-04-07T12:58:36;3.00;;;1.77;;
60851;SDS011;48553;50.766;2.900;2023-04-07T13:01:37;2.90;;;1.20;;
60851;SDS011;48553;50.766;2.900;2023-04-07T13:04:37;2.63;;;1.15;;
60851;SDS011;48553;50.766;2.900;2023-04-07T13:07:39;3.15;;;1.50;;
60851;SDS011;48553;50.766;2.900;2023-04-07T13:10:40;2.38;;;1.25;;
60851;SDS011;48553;50.766;2.900;2023-04-07T13:13:40;4.95;;;1.70;;
60851;SDS011;48553;50.766;2.900;2023-04-07T13:16:40;6.18;;;3.83;;
60851;SDS011;48553;50.766;2.900;2023-04-07T13:19:41;2.15;;;1.10;;
60851;SDS011;48553;50.766;2.900;2023-04-07T13:22:42;3.67;;;1.30;;
60851;SDS011;48553;50.766;2.900;2023-04-07T13:25:42;6.10;;;1.50;;
60851;SDS011;48553;50.766;2.900;2023-04-07T13:28:42;5.55;;;1.50;;
60851;SDS011;48553;50.766;2.900;2023-04-07T13:31:45;4.93;;;1.95;;
60851;SDS011;48553;50.766;2.900;2023-04-07T13:34:45;5.57;;;2.00;;
60851;SDS011;48553;50.766;2.900;2023-04-07T13:37:46;6.68;;;1.80;;
60851;SDS011;48553;50.766;2.900;2023-04-07T13:40:46;6.43;;;1.30;;
60851;SDS011;48553;50.766;2.900;2023-04-07T13:43:48;3.40;;;1.52;;
60851;SDS011;48553;50.766;2.900;2023-04-07T13:46:49;4.95;;;1.10;;
60851;SDS011;48553;50.766;2.900;2023-04-07T13:49:49;3.08;;;1.23;;
60851;SDS011;48553;50.766;2.900;2023-04-07T13:52:51;3.78;;;1.30;;
60851;SDS011;48553;50.766;2.900;2023-04-07T13:55:51;5.47;;;1.98;;
60851;SDS011;48553;50.766;2.900;2023-04-07T13:58:51;6.20;;;1.30;;
60851;SDS011;48553;50.766;2.900;2023-04-07T14:01:52;3.85;;;1.30;;
60851;SDS011;48553;50.766;2.900;2023-04-07T14:04:53;7.00;;;1.70;;
60851;SDS011;48553;50.766;2.900;2023-04-07T14:07:53;5.97;;;1.40;;
60851;SDS011;48553;50.766;2.900;2023-04-07T14:10:54;5.35;;;1.40;;
60851;SDS011;48553;50.766;2.900;2023-04-07T14:13:54;3.85;;;1.23;;
60851;SDS011;48553;50.766;2.900;2023-04-07T14:16:59;4.50;;;1.23;;
60851;SDS011;48553;50.766;2.900;2023-04-07T14:19:59;3.38;;;1.17;;
60851;SDS011;48553;50.766;2.900;2023-04-07T14:22:59;4.57;;;1.20;;
60851;SDS011;48553;50.766;2.900;2023-04-07T14:26:00;6.78;;;1.35;;
60851;SDS011;48553;50.766;2.900;2023-04-07T14:29:01;6.13;;;1.50;;
60851;SDS011;48553;50.766;2.900;2023-04-07T14:32:02;4.63;;;1.17;;
60851;SDS011;48553;50.766;2.900;2023-04-07T14:35:02;3.42;;;1.08;;
60851;SDS011;48553;50.766;2.900;2023-04-07T14:38:03;2.60;;;1.20;;
60851;SDS011;48553;50.766;2.900;2023-04-07T14:41:03;3.72;;;1.20;;
60851;SDS011;48553;50.766;2.900;2023-04-07T14:44:04;4.35;;;1.00;;
60851;SDS011;48553;50.766;2.900;2023-04-07T14:47:05;2.65;;;1.17;;
60851;SDS011;48553;50.766;2.900;2023-04-07T14:50:05;3.15;;;0.85;;
60851;SDS011;48553;50.766;2.900;2023-04-07T14:53:06;2.72;;;0.90;;
60851;SDS011;48553;50.766;2.900;2023-04-07T14:56:07;3.53;;;0.80;;
60851;SDS011;48553;50.766;2.900;2023-04-07T14:59:08;4.65;;;0.95;;
60851;SDS011;48553;50.766;2.900;2023-04-07T15:02:08;1.48;;;0.63;;
60851;SDS011;48553;50.766;2.900;2023-04-07T15:05:09;3.95;;;0.95;;
60851;SDS011;48553;50.766;2.900;2023-04-07T15:08:09;2.58;;;0.75;;
60851;SDS011;48553;50.766;2.900;2023-04-07T15:11:10;2.88;;;0.70;;
60851;SDS011;48553;50.766;2.900;2023-04-07T15:14:10;1.30;;;0.50;;
60851;SDS011;48553;50.766;2.900;2023-04-07T15:17:11;3.42;;;0.80;;
60851;SDS011;48553;50.766;2.900;2023-04-07T15:20:11;3.50;;;0.80;;
60851;SDS011;48553;50.766;2.900;2023-04-07T15:23:12;4.43;;;1.00;;
60851;SDS011;48553;50.766;2.900;2023-04-07T15:26:13;4.05;;;0.80;;
60851;SDS011;48553;50.766;2.900;2023-04-07T15:29:14;6.15;;;1.17;;
60851;SDS011;48553;50.766;2.900;2023-04-07T15:32:14;3.88;;;1.10;;
60851;SDS011;48553;50.766;2.900;2023-04-07T15:35:15;1.88;;;0.90;;
60851;SDS011;48553;50.766;2.900;2023-04-07T15:38:16;2.33;;;0.77;;
60851;SDS011;48553;50.766;2.900;2023-04-07T15:41:17;3.05;;;1.00;;
60851;SDS011;48553;50.766;2.900;2023-04-07T15:44:17;5.57;;;1.25;;
60851;SDS011;48553;50.766;2.900;2023-04-07T15:47:18;4.82;;;1.10;;
60851;SDS011;48553;50.766;2.900;2023-04-07T15:50:18;5.38;;;1.10;;
60851;SDS011;48553;50.766;2.900;2023-04-07T15:53:18;6.50;;;1.20;;
60851;SDS011;48553;50.766;2.900;2023-04-07T15:56:19;4.38;;;1.20;;
60851;SDS011;48553;50.766;2.900;2023-04-07T15:59:23;3.95;;;1.20;;
60851;SDS011;48553;50.766;2.900;2023-04-07T16:02:23;3.88;;;1.30;;
60851;SDS011;48553;50.766;2.900;2023-04-07T16:05:24;2.60;;;1.00;;
60851;SDS011;48553;50.766;2.900;2023-04-07T16:08:25;3.80;;;1.10;;
60851;SDS011;48553;50.766;2.900;2023-04-07T16:11:25;3.20;;;1.23;;
60851;SDS011;48553;50.766;2.900;2023-04-07T16:14:25;5.93;;;1.55;;
60851;SDS011;48553;50.766;2.900;2023-04-07T16:17:28;5.97;;;1.30;;
60851;SDS011;48553;50.766;2.900;2023-04-07T16:20:28;6.72;;;1.23;;
60851;SDS011;48553;50.766;2.900;2023-04-07T16:23:29;6.30;;;1.20;;
60851;SDS011;48553;50.766;2.900;2023-04-07T16:26:29;8.38;;;2.40;;
60851;SDS011;48553;50.766;2.900;2023-04-07T16:29:30;6.28;;;1.60;;
60851;SDS011;48553;50.766;2.900;2023-04-07T16:32:33;5.28;;;1.42;;
60851;SDS011;48553;50.766;2.900;2023-04-07T16:35:34;3.35;;;1.40;;
60851;SDS011;48553;50.766;2.900;2023-04-07T16:38:34;4.03;;;1.60;;
60851;SDS011;48553;50.766;2.900;2023-04-07T16:41:35;5.80;;;1.60;;
60851;SDS011;48553;50.766;2.900;2023-04-07T16:44:35;4.60;;;1.48;;
60851;SDS011;48553;50.766;2.900;2023-04-07T16:47:36;4.55;;;1.33;;
60851;SDS011;48553;50.766;2.900;2023-04-07T16:50:40;3.95;;;1.33;;
60851;SDS011;48553;50.766;2.900;2023-04-07T16:53:41;4.80;;;1.77;;
60851;SDS011;48553;50.766;2.900;2023-04-07T16:56:42;6.20;;;1.63;;
60851;SDS011;48553;50.766;2.900;2023-04-07T16:59:42;5.60;;;1.42;;
60851;SDS011;48553;50.766;2.900;2023-04-07T17:02:43;6.78;;;1.60;;
60851;SDS011;48553;50.766;2.900;2023-04-07T17:05:43;4.60;;;1.40;;
60851;SDS011;48553;50.766;2.900;2023-04-07T17:08:44;3.65;;;1.40;;
60851;SDS011;48553;50.766;2.900;2023-04-07T17:11:45;3.35;;;1.30;;
60851;SDS011;48553;50.766;2.900;2023-04-07T17:14:45;5.03;;;1.42;;
60851;SDS011;48553;50.766;2.900;2023-04-07T17:17:45;5.47;;;1.58;;
60851;SDS011;48553;50.766;2.900;2023-04-07T17:20:46;3.92;;;1.30;;
60851;SDS011;48553;50.766;2.900;2023-04-07T17:23:46;3.88;;;1.30;;
60851;SDS011;48553;50.766;2.900;2023-04-07T17:26:47;4.10;;;1.30;;
60851;SDS011;48553;50.766;2.900;2023-04-07T17:29:47;6.80;;;1.40;;
60851;SDS011;48553;50.766;2.900;2023-04-07T17:32:48;5.68;;;1.50;;
60851;SDS011;48553;50.766;2.900;2023-04-07T17:35:52;5.73;;;1.63;;
60851;SDS011;48553;50.766;2.900;2023-04-07T17:38:54;4.53;;;1.30;;
60851;SDS011;48553;50.766;2.900;2023-04-07T17:41:55;3.83;;;1.40;;
60851;SDS011;48553;50.766;2.900;2023-04-07T17:44:55;5.40;;;1.50;;
60851;SDS011;48553;50.766;2.900;2023-04-07T17:47:56;4.13;;;1.40;;
60851;SDS011;48553;50.766;2.900;2023-04-07T17:50:57;7.15;;;1.40;;
60851;SDS011;48553;50.766;2.900;2023-04-07T17:53:58;4.15;;;1.20;;
60851;SDS011;48553;50.766;2.900;2023-04-07T17:56:59;3.33;;;1.50;;
60851;SDS011;48553;50.766;2.900;2023-04-07T18:00:00;4.40;;;1.40;;
60851;SDS011;48553;50.766;2.900;2023-04-07T18:03:01;5.28;;;1.52;;
60851;SDS011;48553;50.766;2.900;2023-04-07T18:06:03;4.30;;;1.50;;
60851;SDS011;48553;50.766;2.900;2023-04-07T18:09:03;5.18;;;1.40;;
60851;SDS011;48553;50.766;2.900;2023-04-07T18:12:04;4.18;;;1.20;;
60851;SDS011;48553;50.766;2.900;2023-04-07T18:15:05;4.72;;;1.40;;
60851;SDS011;48553;50.766;2.900;2023-04-07T18:18:06;4.03;;;1.35;;
60851;SDS011;48553;50.766;2.900;2023-04-07T18:21:07;4.70;;;1.33;;
60851;SDS011;48553;50.766;2.900;2023-04-07T18:24:07;4.88;;;1.33;;
60851;SDS011;48553;50.766;2.900;2023-04-07T18:27:08;3.97;;;1.30;;
60851;SDS011;48553;50.766;2.900;2023-04-07T18:30:09;6.78;;;1.58;;
60851;SDS011;48553;50.766;2.900;2023-04-07T18:33:09;4.88;;;1.52;;
60851;SDS011;48553;50.766;2.900;2023-04-07T18:36:10;4.68;;;1.60;;
60851;SDS011;48553;50.766;2.900;2023-04-07T18:39:11;4.88;;;1.40;;